sensor_id;sensor_type;location;lat;lon;timestamp;pressure;altitude;pressure_sealevel;temperature;humidity
36258;BME280;22294;52.044;4.582;2023-03-11T00:01:57;77317.13;;;-144.37;69.80
36258;BME280;22294;52.044;4.582;2023-03-11T00:04:22;77317.13;;;-144.37;71.07
36258;BME280;22294;52.044;4.582;2023-03-11T00:06:48;77321.22;;;-144.37;72.53
36258;BME280;22294;52.044;4.582;2023-03-11T00:09:13;77329.41;;;-144.37;71.61
36258;BME280;22294;52.044;4.582;2023-03-11T00:11:38;77327.38;;;-144.37;70.04
36258;BME280;22294;52.044;4.582;2023-03-11T00:14:05;77333.50;;;-144.37;67.97
36258;BME280;22294;52.044;4.582;2023-03-11T00:16:31;77333.50;;;-144.37;66.91
36258;BME280;22294;52.044;4.582;2023-03-11T00:18:56;77327.38;;;-144.37;66.57
36258;BME280;22294;52.044;4.582;2023-03-11T00:21:22;77337.59;;;-144.37;64.80
36258;BME280;22294;52.044;4.582;2023-03-11T00:23:47;77343.72;;;-144.37;64.35
36258;BME280;22294;52.044;4.582;2023-03-11T00:26:12;77356.00;;;-144.37;63.28
36258;BME280;22294;52.044;4.582;2023-03-11T00:28:38;77360.09;;;-144.37;62.13
36258;BME280;22294;52.044;4.582;2023-03-11T00:31:04;77360.09;;;-144.37;60.18
36258;BME280;22294;52.044;4.582;2023-03-11T00:33:30;77366.25;;;-144.37;59.21
36258;BME280;22294;52.044;4.582;2023-03-11T00:35:55;77372.38;;;-144.37;58.16
36258;BME280;22294;52.044;4.582;2023-03-11T00:38:21;77378.50;;;-144.37;57.72
36258;BME280;22294;52.044;4.582;2023-03-11T00:40:47;77362.16;;;-144.37;58.63
36258;BME280;22294;52.044;4.582;2023-03-11T00:43:13;77372.38;;;-144.37;58.08
36258;BME280;22294;52.044;4.582;2023-03-11T00:45:38;77376.47;;;-144.37;57.75
36258;BME280;22294;52.044;4.582;2023-03-11T00:48:05;77370.34;;;-144.37;58.13
36258;BME280;22294;52.044;4.582;2023-03-11T00:50:33;77372.38;;;-144.37;57.47
36258;BME280;22294;52.044;4.582;2023-03-11T00:52:59;77362.16;;;-144.37;58.09
36258;BME280;22294;52.044;4.582;2023-03-11T00:55:29;77370.34;;;-144.37;57.99
36258;BME280;22294;52.044;4.582;2023-03-11T00:58:00;77368.28;;;-144.37;58.43
36258;BME280;22294;52.044;4.582;2023-03-11T01:00:27;77362.16;;;-144.37;58.99
36258;BME280;22294;52.044;4.582;2023-03-11T01:02:54;77364.19;;;-144.37;58.27
36258;BME280;22294;52.044;4.582;2023-03-11T01:05:23;77372.38;;;-144.37;58.46
36258;BME280;22294;52.044;4.582;2023-03-11T01:07:49;77370.34;;;-144.37;58.82
36258;BME280;22294;52.044;4.582;2023-03-11T01:10:15;77378.50;;;-144.37;59.43
36258;BME280;22294;52.044;4.582;2023-03-11T01:12:41;77372.38;;;-144.37;59.45
36258;BME280;22294;52.044;4.582;2023-03-11T01:15:08;77382.59;;;-144.37;59.57
36258;BME280;22294;52.044;4.582;2023-03-11T01:17:34;77384.66;;;-144.37;60.42
36258;BME280;22294;52.044;4.582;2023-03-11T01:20:00;77388.75;;;-144.37;60.18
36258;BME280;22294;52.044;4.582;2023-03-11T01:22:25;77386.69;;;-144.37;60.77
36258;BME280;22294;52.044;4.582;2023-03-11T01:24:50;77401.00;;;-144.37;60.46
36258;BME280;22294;52.044;4.582;2023-03-11T01:27:16;77396.94;;;-144.37;60.80
36258;BME280;22294;52.044;4.582;2023-03-11T01:29:41;77401.00;;;-144.37;60.86
36258;BME280;22294;52.044;4.582;2023-03-11T01:32:06;77411.25;;;-144.37;60.99
36258;BME280;22294;52.044;4.582;2023-03-11T01:34:32;77415.34;;;-144.37;61.36
36258;BME280;22294;52.044;4.582;2023-03-11T01:37:01;77417.38;;;-144.37;60.92
36258;BME280;22294;52.044;4.582;2023-03-11T01:39:26;77413.28;;;-144.37;60.92
36258;BME280;22294;52.044;4.582;2023-03-11T01:41:52;77417.38;;;-144.37;61.69
36258;BME280;22294;52.044;4.582;2023-03-11T01:44:17;77423.53;;;-144.37;61.38
36258;BME280;22294;52.044;4.582;2023-03-11T01:49:28;77439.88;;;-144.37;61.67
36258;BME280;22294;52.044;4.582;2023-03-11T01:51:57;77443.97;;;-144.37;62.51
36258;BME280;22294;52.044;4.582;2023-03-11T01:54:26;77441.94;;;-144.37;62.08
36258;BME280;22294;52.044;4.582;2023-03-11T01:56:53;77446.03;;;-144.37;62.34
36258;BME280;22294;52.044;4.582;2023-03-11T01:59:31;77443.97;;;-144.37;62.58
36258;BME280;22294;52.044;4.582;2023-03-11T02:02:01;77446.03;;;-144.37;62.09
36258;BME280;22294;52.044;4.582;2023-03-11T02:04:32;77441.94;;;-144.37;62.72
36258;BME280;22294;52.044;4.582;2023-03-11T02:06:58;77458.28;;;-144.37;65.42
36258;BME280;22294;52.044;4.582;2023-03-11T02:09:24;77456.25;;;-144.37;65.49
36258;BME280;22294;52.044;4.582;2023-03-11T02:11:51;77468.53;;;-144.37;65.14
36258;BME280;22294;52.044;4.582;2023-03-11T02:14:17;77462.38;;;-144.37;65.44
36258;BME280;22294;52.044;4.582;2023-03-11T02:16:42;77468.53;;;-144.37;67.64
36258;BME280;22294;52.044;4.582;2023-03-11T02:19:44;77466.47;;;-144.37;65.55
36258;BME280;22294;52.044;4.582;2023-03-11T02:22:14;77474.66;;;-144.37;65.97
36258;BME280;22294;52.044;4.582;2023-03-11T02:24:46;77482.84;;;-144.37;70.37
36258;BME280;22294;52.044;4.582;2023-03-11T02:27:15;77505.34;;;-144.37;70.94
36258;BME280;22294;52.044;4.582;2023-03-11T02:29:43;77503.31;;;-144.37;69.24
36258;BME280;22294;52.044;4.582;2023-03-11T02:32:12;77495.13;;;-144.37;68.53
36258;BME280;22294;52.044;4.582;2023-03-11T02:34:38;77501.25;;;-144.37;70.16
36258;BME280;22294;52.044;4.582;2023-03-11T02:37:06;77503.31;;;-144.37;73.73
36258;BME280;22294;52.044;4.582;2023-03-11T02:39:40;77503.31;;;-144.37;69.55
36258;BME280;22294;52.044;4.582;2023-03-11T02:42:16;77515.59;;;-144.37;73.56
36258;BME280;22294;52.044;4.582;2023-03-11T02:44:46;77529.91;;;-144.37;76.49
36258;BME280;22294;52.044;4.582;2023-03-11T02:47:14;77536.03;;;-144.37;78.16
36258;BME280;22294;52.044;4.582;2023-03-11T02:49:40;77540.13;;;-144.37;80.23
36258;BME280;22294;52.044;4.582;2023-03-11T02:52:06;77550.38;;;-144.37;81.76
36258;BME280;22294;52.044;4.582;2023-03-11T02:54:31;77552.41;;;-144.37;82.40
36258;BME280;22294;52.044;4.582;2023-03-11T02:56:57;77562.63;;;-144.37;83.33
36258;BME280;22294;52.044;4.582;2023-03-11T02:59:22;77562.63;;;-144.37;84.79
36258;BME280;22294;52.044;4.582;2023-03-11T03:01:47;77579.00;;;-144.37;85.40
36258;BME280;22294;52.044;4.582;2023-03-11T03:04:13;77591.28;;;-144.37;86.68
36258;BME280;22294;52.044;4.582;2023-03-11T03:06:38;77603.56;;;-144.37;87.75
36258;BME280;22294;52.044;4.582;2023-03-11T03:09:03;77607.66;;;-144.37;87.88
36258;BME280;22294;52.044;4.582;2023-03-11T03:11:29;77613.78;;;-144.37;88.37
36258;BME280;22294;52.044;4.582;2023-03-11T03:13:54;77634.25;;;-144.37;89.35
36258;BME280;22294;52.044;4.582;2023-03-11T03:16:20;77638.34;;;-144.37;89.65
36258;BME280;22294;52.044;4.582;2023-03-11T03:18:45;77652.66;;;-144.37;90.75
36258;BME280;22294;52.044;4.582;2023-03-11T03:21:10;77662.88;;;-144.37;91.25
36258;BME280;22294;52.044;4.582;2023-03-11T03:23:35;77664.94;;;-144.37;92.37
36258;BME280;22294;52.044;4.582;2023-03-11T03:26:05;77673.13;;;-144.37;92.96
36258;BME280;22294;52.044;4.582;2023-03-11T03:28:31;77683.34;;;-144.37;93.50
36258;BME280;22294;52.044;4.582;2023-03-11T03:31:02;77685.38;;;-144.37;94.32
36258;BME280;22294;52.044;4.582;2023-03-11T03:33:28;77697.66;;;-144.37;94.15
36258;BME280;22294;52.044;4.582;2023-03-11T03:35:53;77703.81;;;-144.37;94.52
36258;BME280;22294;52.044;4.582;2023-03-11T03:38:18;77703.81;;;-144.37;94.87
36258;BME280;22294;52.044;4.582;2023-03-11T03:40:45;77707.91;;;-144.37;95.26
36258;BME280;22294;52.044;4.582;2023-03-11T03:43:11;77714.03;;;-144.37;95.79
36258;BME280;22294;52.044;4.582;2023-03-11T03:45:36;77726.31;;;-144.37;96.41
36258;BME280;22294;52.044;4.582;2023-03-11T03:48:02;77728.34;;;-144.37;97.06
36258;BME280;22294;52.044;4.582;2023-03-11T03:50:29;77734.50;;;-144.37;98.17
36258;BME280;22294;52.044;4.582;2023-03-11T03:52:54;77736.53;;;-144.37;98.29
36258;BME280;22294;52.044;4.582;2023-03-11T03:55:19;77736.53;;;-144.37;98.58
36258;BME280;22294;52.044;4.582;2023-03-11T03:57:45;77736.53;;;-144.37;98.81
36258;BME280;22294;52.044;4.582;2023-03-11T04:00:10;77740.63;;;-144.37;98.70
36258;BME280;22294;52.044;4.582;2023-03-11T04:02:36;77742.69;;;-144.37;98.77
36258;BME280;22294;52.044;4.582;2023-03-11T04:05:02;77744.72;;;-144.37;98.21
36258;BME280;22294;52.044;4.582;2023-03-11T04:07:27;77746.78;;;-144.37;98.24
36258;BME280;22294;52.044;4.582;2023-03-11T04:09:52;77744.72;;;-144.37;98.45
36258;BME280;22294;52.044;4.582;2023-03-11T04:12:17;77746.78;;;-144.37;98.29
36258;BME280;22294;52.044;4.582;2023-03-11T04:14:43;77746.78;;;-144.37;98.50
36258;BME280;22294;52.044;4.582;2023-03-11T04:17:12;77746.78;;;-144.37;98.57
36258;BME280;22294;52.044;4.582;2023-03-11T04:19:38;77748.81;;;-144.37;97.63
36258;BME280;22294;52.044;4.582;2023-03-11T04:22:03;77754.97;;;-144.37;98.23
36258;BME280;22294;52.044;4.582;2023-03-11T04:24:29;77752.91;;;-144.37;99.11
36258;BME280;22294;52.044;4.582;2023-03-11T04:26:54;77750.88;;;-144.37;99.51
36258;BME280;22294;52.044;4.582;2023-03-11T04:29:20;77750.88;;;-144.37;98.51
36258;BME280;22294;52.044;4.582;2023-03-11T04:31:45;77754.97;;;-144.37;98.28
36258;BME280;22294;52.044;4.582;2023-03-11T04:34:11;77763.13;;;-144.37;98.11
36258;BME280;22294;52.044;4.582;2023-03-11T04:36:36;77769.28;;;-144.37;98.42
36258;BME280;22294;52.044;4.582;2023-03-11T04:39:02;77771.31;;;-144.37;99.50
36258;BME280;22294;52.044;4.582;2023-03-11T04:41:27;77773.38;;;-144.37;99.94
36258;BME280;22294;52.044;4.582;2023-03-11T04:43:53;77781.56;;;-144.37;100.00
36258;BME280;22294;52.044;4.582;2023-03-11T04:46:18;77783.59;;;-144.37;100.00
36258;BME280;22294;52.044;4.582;2023-03-11T04:48:43;77802.00;;;-144.37;100.00
36258;BME280;22294;52.044;4.582;2023-03-11T04:51:09;77804.06;;;-144.37;100.00
36258;BME280;22294;52.044;4.582;2023-03-11T04:53:34;77799.97;;;-144.37;100.00
36258;BME280;22294;52.044;4.582;2023-03-11T04:55:59;77804.06;;;-144.37;100.00
36258;BME280;22294;52.044;4.582;2023-03-11T04:58:25;77816.34;;;-144.37;100.00
36258;BME280;22294;52.044;4.582;2023-03-11T05:00:51;77810.19;;;-144.37;100.00
36258;BME280;22294;52.044;4.582;2023-03-11T05:03:16;77812.25;;;-144.37;100.00
36258;BME280;22294;52.044;4.582;2023-03-11T05:05:43;77820.44;;;-144.37;100.00
36258;BME280;22294;52.044;4.582;2023-03-11T05:08:09;77824.53;;;-144.37;100.00
36258;BME280;22294;52.044;4.582;2023-03-11T05:10:39;77826.56;;;-144.37;100.00
36258;BME280;22294;52.044;4.582;2023-03-11T05:13:04;77826.56;;;-144.37;100.00
36258;BME280;22294;52.044;4.582;2023-03-11T05:15:29;77834.75;;;-144.37;100.00
36258;BME280;22294;52.044;4.582;2023-03-11T05:17:55;77828.59;;;-144.37;100.00
36258;BME280;22294;52.044;4.582;2023-03-11T05:20:21;77838.84;;;-144.37;100.00
36258;BME280;22294;52.044;4.582;2023-03-11T05:22:46;77842.94;;;-144.37;100.00
36258;BME280;22294;52.044;4.582;2023-03-11T05:25:12;77849.06;;;-144.37;100.00
36258;BME280;22294;52.044;4.582;2023-03-11T05:27:37;77847.03;;;-144.37;100.00
36258;BME280;22294;52.044;4.582;2023-03-11T05:30:03;77847.03;;;-144.37;100.00
36258;BME280;22294;52.044;4.582;2023-03-11T05:32:29;77859.31;;;-144.37;100.00
36258;BME280;22294;52.044;4.582;2023-03-11T05:34:54;77859.31;;;-144.37;100.00
36258;BME280;22294;52.044;4.582;2023-03-11T05:37:19;77865.44;;;-144.37;100.00
36258;BME280;22294;52.044;4.582;2023-03-11T05:39:44;77863.38;;;-144.37;100.00
36258;BME280;22294;52.044;4.582;2023-03-11T05:42:10;77859.31;;;-144.37;100.00
36258;BME280;22294;52.044;4.582;2023-03-11T05:44:36;77865.44;;;-144.37;100.00
36258;BME280;22294;52.044;4.582;2023-03-11T05:47:01;77871.56;;;-144.37;100.00
36258;BME280;22294;52.044;4.582;2023-03-11T05:49:26;77877.72;;;-144.37;100.00
36258;BME280;22294;52.044;4.582;2023-03-11T05:51:52;77879.75;;;-144.37;100.00
36258;BME280;22294;52.044;4.582;2023-03-11T05:54:18;77881.81;;;-144.37;100.00
36258;BME280;22294;52.044;4.582;2023-03-11T05:56:44;77869.53;;;-144.37;100.00
36258;BME280;22294;52.044;4.582;2023-03-11T05:59:11;77873.63;;;-144.37;100.00
36258;BME280;22294;52.044;4.582;2023-03-11T06:01:37;77879.75;;;-144.37;100.00
36258;BME280;22294;52.044;4.582;2023-03-11T06:04:02;77883.84;;;-144.37;100.00
36258;BME280;22294;52.044;4.582;2023-03-11T06:06:28;77887.94;;;-144.37;100.00
36258;BME280;22294;52.044;4.582;2023-03-11T06:08:54;77890.00;;;-144.37;100.00
36258;BME280;22294;52.044;4.582;2023-03-11T06:11:19;77892.03;;;-144.37;100.00
36258;BME280;22294;52.044;4.582;2023-03-11T06:13:45;77896.13;;;-144.37;100.00
36258;BME280;22294;52.044;4.582;2023-03-11T06:16:11;77898.19;;;-144.37;100.00
36258;BME280;22294;52.044;4.582;2023-03-11T06:18:36;77904.31;;;-144.37;100.00
36258;BME280;22294;52.044;4.582;2023-03-11T06:21:02;77902.25;;;-144.37;100.00
36258;BME280;22294;52.044;4.582;2023-03-11T06:23:28;77906.34;;;-144.37;100.00
36258;BME280;22294;52.044;4.582;2023-03-11T06:25:59;77906.34;;;-144.37;100.00
36258;BME280;22294;52.044;4.582;2023-03-11T06:28:26;77912.50;;;-144.37;100.00
36258;BME280;22294;52.044;4.582;2023-03-11T06:30:52;77908.41;;;-144.37;100.00
36258;BME280;22294;52.044;4.582;2023-03-11T06:33:17;77916.59;;;-144.37;100.00
36258;BME280;22294;52.044;4.582;2023-03-11T06:35:43;77906.34;;;-144.37;100.00
36258;BME280;22294;52.044;4.582;2023-03-11T06:38:09;77914.53;;;-144.37;100.00
36258;BME280;22294;52.044;4.582;2023-03-11T06:40:35;77904.31;;;-144.37;100.00
36258;BME280;22294;52.044;4.582;2023-03-11T06:43:01;77908.41;;;-144.37;100.00
36258;BME280;22294;52.044;4.582;2023-03-11T06:45:27;77912.50;;;-144.37;100.00
36258;BME280;22294;52.044;4.582;2023-03-11T06:47:52;77908.41;;;-144.37;100.00
36258;BME280;22294;52.044;4.582;2023-03-11T06:50:17;77910.44;;;-144.37;100.00
36258;BME280;22294;52.044;4.582;2023-03-11T06:52:43;77908.41;;;-144.37;100.00
36258;BME280;22294;52.044;4.582;2023-03-11T06:55:08;77908.41;;;-144.37;100.00
36258;BME280;22294;52.044;4.582;2023-03-11T06:57:34;77908.41;;;-144.37;100.00
36258;BME280;22294;52.044;4.582;2023-03-11T06:59:59;77900.22;;;-144.37;100.00
36258;BME280;22294;52.044;4.582;2023-03-11T07:02:24;77902.25;;;-144.37;100.00
36258;BME280;22294;52.044;4.582;2023-03-11T07:04:50;77898.19;;;-144.37;100.00
36258;BME280;22294;52.044;4.582;2023-03-11T07:07:16;77892.03;;;-144.37;100.00
36258;BME280;22294;52.044;4.582;2023-03-11T07:09:41;77875.66;;;-144.37;100.00
36258;BME280;22294;52.044;4.582;2023-03-11T07:12:07;77871.56;;;-144.37;100.00
36258;BME280;22294;52.044;4.582;2023-03-11T07:14:32;77871.56;;;-144.37;100.00
36258;BME280;22294;52.044;4.582;2023-03-11T07:16:58;77869.53;;;-144.37;100.00
36258;BME280;22294;52.044;4.582;2023-03-11T07:19:23;77861.34;;;-144.37;100.00
36258;BME280;22294;52.044;4.582;2023-03-11T07:21:49;77859.31;;;-144.37;100.00
36258;BME280;22294;52.044;4.582;2023-03-11T07:24:15;77855.22;;;-144.37;100.00
36258;BME280;22294;52.044;4.582;2023-03-11T07:26:40;77847.03;;;-144.37;100.00
36258;BME280;22294;52.044;4.582;2023-03-11T07:29:06;77836.78;;;-144.37;100.00
36258;BME280;22294;52.044;4.582;2023-03-11T07:31:33;77830.66;;;-144.37;100.00
36258;BME280;22294;52.044;4.582;2023-03-11T07:34:01;77822.47;;;-144.37;100.00
36258;BME280;22294;52.044;4.582;2023-03-11T07:36:28;77820.44;;;-144.37;100.00
36258;BME280;22294;52.044;4.582;2023-03-11T07:38:55;77810.19;;;-144.37;100.00
36258;BME280;22294;52.044;4.582;2023-03-11T07:41:24;77799.97;;;-144.37;100.00
36258;BME280;22294;52.044;4.582;2023-03-11T07:43:53;77791.78;;;-144.37;100.00
36258;BME280;22294;52.044;4.582;2023-03-11T07:46:18;77781.56;;;-144.37;100.00
36258;BME280;22294;52.044;4.582;2023-03-11T07:48:45;77771.31;;;-144.37;100.00
36258;BME280;22294;52.044;4.582;2023-03-11T07:51:12;77757.00;;;-144.37;100.00
36258;BME280;22294;52.044;4.582;2023-03-11T07:53:38;77746.78;;;-144.37;100.00
36258;BME280;22294;52.044;4.582;2023-03-11T07:56:06;77734.50;;;-144.37;100.00
36258;BME280;22294;52.044;4.582;2023-03-11T07:58:31;77726.31;;;-144.37;100.00
36258;BME280;22294;52.044;4.582;2023-03-11T08:01:06;77720.19;;;-144.37;100.00
36258;BME280;22294;52.044;4.582;2023-03-11T08:03:33;77709.94;;;-144.37;100.00
36258;BME280;22294;52.044;4.582;2023-03-11T08:05:58;77697.66;;;-144.37;97.43
36258;BME280;22294;52.044;4.582;2023-03-11T08:08:24;77683.34;;;-144.37;93.64
36258;BME280;22294;52.044;4.582;2023-03-11T08:10:49;77666.97;;;-144.37;92.49
36258;BME280;22294;52.044;4.582;2023-03-11T08:13:16;77646.53;;;-144.37;92.74
36258;BME280;22294;52.044;4.582;2023-03-11T08:15:41;77634.25;;;-144.37;91.23
36258;BME280;22294;52.044;4.582;2023-03-11T08:18:07;77621.97;;;-144.37;88.66
36258;BME280;22294;52.044;4.582;2023-03-11T08:20:32;77621.97;;;-144.37;86.72
36258;BME280;22294;52.044;4.582;2023-03-11T08:22:57;77601.50;;;-144.37;85.62
36258;BME280;22294;52.044;4.582;2023-03-11T08:25:23;77587.19;;;-144.37;83.50
36258;BME280;22294;52.044;4.582;2023-03-11T08:27:48;77572.88;;;-144.37;81.55
36258;BME280;22294;52.044;4.582;2023-03-11T08:30:14;77568.78;;;-144.37;80.86
36258;BME280;22294;52.044;4.582;2023-03-11T08:32:39;77550.38;;;-144.37;81.64
36258;BME280;22294;52.044;4.582;2023-03-11T08:35:05;77538.09;;;-144.37;81.66
36258;BME280;22294;52.044;4.582;2023-03-11T08:37:31;77531.94;;;-144.37;81.54
36258;BME280;22294;52.044;4.582;2023-03-11T08:39:56;77515.59;;;-144.37;80.88
36258;BME280;22294;52.044;4.582;2023-03-11T08:42:21;77511.50;;;-144.37;81.07
36258;BME280;22294;52.044;4.582;2023-03-11T08:44:47;77503.31;;;-144.37;81.60
36258;BME280;22294;52.044;4.582;2023-03-11T08:47:12;77503.31;;;-144.37;79.66
36258;BME280;22294;52.044;4.582;2023-03-11T08:49:38;77499.22;;;-144.37;77.03
36258;BME280;22294;52.044;4.582;2023-03-11T08:52:04;77493.06;;;-144.37;76.40
36258;BME280;22294;52.044;4.582;2023-03-11T08:54:29;77484.91;;;-144.37;77.53
36258;BME280;22294;52.044;4.582;2023-03-11T08:56:55;77468.53;;;-144.37;76.64
36258;BME280;22294;52.044;4.582;2023-03-11T08:59:20;77458.28;;;-144.37;72.95
36258;BME280;22294;52.044;4.582;2023-03-11T09:01:46;77452.16;;;-144.37;69.94
36258;BME280;22294;52.044;4.582;2023-03-11T09:04:12;77437.84;;;-144.37;70.71
36258;BME280;22294;52.044;4.582;2023-03-11T09:06:42;77425.56;;;-144.37;72.10
36258;BME280;22294;52.044;4.582;2023-03-11T09:09:10;77421.47;;;-144.37;70.90
36258;BME280;22294;52.044;4.582;2023-03-11T09:11:35;77415.34;;;-144.37;68.73
36258;BME280;22294;52.044;4.582;2023-03-11T09:14:02;77417.38;;;-144.37;67.50
36258;BME280;22294;52.044;4.582;2023-03-11T09:16:27;77411.25;;;-144.37;67.42
36258;BME280;22294;52.044;4.582;2023-03-11T09:18:52;77413.28;;;-144.37;66.01
36258;BME280;22294;52.044;4.582;2023-03-11T09:21:18;77403.06;;;-144.37;66.09
36258;BME280;22294;52.044;4.582;2023-03-11T09:23:44;77396.94;;;-144.37;65.11
36258;BME280;22294;52.044;4.582;2023-03-11T09:26:09;77392.84;;;-144.37;65.69
36258;BME280;22294;52.044;4.582;2023-03-11T09:28:34;77386.69;;;-144.37;67.28
36258;BME280;22294;52.044;4.582;2023-03-11T09:31:00;77380.56;;;-144.37;67.56
36258;BME280;22294;52.044;4.582;2023-03-11T09:33:26;77368.28;;;-144.37;68.26
36258;BME280;22294;52.044;4.582;2023-03-11T09:35:51;77356.00;;;-144.37;67.02
36258;BME280;22294;52.044;4.582;2023-03-11T09:38:16;77347.81;;;-144.37;66.06
36258;BME280;22294;52.044;4.582;2023-03-11T09:40:58;77329.41;;;-144.37;64.01
36258;BME280;22294;52.044;4.582;2023-03-11T09:52:11;77294.63;;;-144.37;62.63
36258;BME280;22294;52.044;4.582;2023-03-11T09:54:44;77294.63;;;-144.37;62.63
36258;BME280;22294;52.044;4.582;2023-03-11T09:57:24;77290.53;;;-144.37;63.13
36258;BME280;22294;52.044;4.582;2023-03-11T09:59:51;77298.72;;;-144.37;64.01
36258;BME280;22294;52.044;4.582;2023-03-11T10:02:19;77292.59;;;-144.37;62.68
36258;BME280;22294;52.044;4.582;2023-03-11T10:04:58;77292.59;;;-144.37;62.39
36258;BME280;22294;52.044;4.582;2023-03-11T10:07:38;77302.81;;;-144.37;62.33
36258;BME280;22294;52.044;4.582;2023-03-11T10:10:05;77292.59;;;-144.37;61.29
36258;BME280;22294;52.044;4.582;2023-03-11T10:12:47;77282.38;;;-144.37;61.46
36258;BME280;22294;52.044;4.582;2023-03-11T10:15:42;77286.44;;;-144.37;61.87
36258;BME280;22294;52.044;4.582;2023-03-11T10:21:23;77266.00;;;-144.37;61.87
36258;BME280;22294;52.044;4.582;2023-03-11T10:24:16;77249.63;;;-144.37;62.55
36258;BME280;22294;52.044;4.582;2023-03-11T10:26:50;77253.72;;;-144.37;62.05
36258;BME280;22294;52.044;4.582;2023-03-11T10:29:24;77247.59;;;-144.37;62.56
36258;BME280;22294;52.044;4.582;2023-03-11T10:32:15;77253.72;;;-144.37;62.84
36258;BME280;22294;52.044;4.582;2023-03-11T10:34:58;77257.81;;;-144.37;62.83
36258;BME280;22294;52.044;4.582;2023-03-11T10:37:31;77266.00;;;-144.37;62.46
36258;BME280;22294;52.044;4.582;2023-03-11T10:40:09;77259.84;;;-144.37;63.51
36258;BME280;22294;52.044;4.582;2023-03-11T10:42:40;77261.91;;;-144.37;61.47
36258;BME280;22294;52.044;4.582;2023-03-11T10:45:12;77266.00;;;-144.37;61.42
36258;BME280;22294;52.044;4.582;2023-03-11T10:47:39;77259.84;;;-144.37;61.53
36258;BME280;22294;52.044;4.582;2023-03-11T10:50:05;77259.84;;;-144.37;61.02
36258;BME280;22294;52.044;4.582;2023-03-11T10:52:30;77263.94;;;-144.37;58.57
36258;BME280;22294;52.044;4.582;2023-03-11T10:55:00;77263.94;;;-144.37;59.60
36258;BME280;22294;52.044;4.582;2023-03-11T10:57:35;77253.72;;;-144.37;60.03
36258;BME280;22294;52.044;4.582;2023-03-11T11:00:04;77239.41;;;-144.37;61.37
36258;BME280;22294;52.044;4.582;2023-03-11T11:02:49;77233.25;;;-144.37;60.79
36258;BME280;22294;52.044;4.582;2023-03-11T11:07:45;77204.63;;;-144.37;59.62
36258;BME280;22294;52.044;4.582;2023-03-11T11:10:21;77196.44;;;-144.37;59.67
36258;BME280;22294;52.044;4.582;2023-03-11T11:15:22;77173.94;;;-144.37;58.98
36258;BME280;22294;52.044;4.582;2023-03-11T11:17:48;77171.91;;;-144.37;57.61
36258;BME280;22294;52.044;4.582;2023-03-11T11:20:16;77175.97;;;-144.37;56.89
36258;BME280;22294;52.044;4.582;2023-03-11T11:22:48;77173.94;;;-144.37;56.86
36258;BME280;22294;52.044;4.582;2023-03-11T11:27:58;77151.44;;;-144.37;58.16
36258;BME280;22294;52.044;4.582;2023-03-11T11:30:25;77141.22;;;-144.37;57.94
36258;BME280;22294;52.044;4.582;2023-03-11T11:32:50;77143.25;;;-144.37;56.20
36258;BME280;22294;52.044;4.582;2023-03-11T11:35:18;77149.41;;;-144.37;56.45
36258;BME280;22294;52.044;4.582;2023-03-11T11:37:54;77153.47;;;-144.37;55.34
36258;BME280;22294;52.044;4.582;2023-03-11T11:40:26;77143.25;;;-144.37;56.13
36258;BME280;22294;52.044;4.582;2023-03-11T11:43:13;77135.06;;;-144.37;56.06
36258;BME280;22294;52.044;4.582;2023-03-11T11:45:44;77124.84;;;-144.37;56.18
36258;BME280;22294;52.044;4.582;2023-03-11T11:51:34;77110.53;;;-144.37;54.15
36258;BME280;22294;52.044;4.582;2023-03-11T11:54:15;77102.34;;;-144.37;54.29
36258;BME280;22294;52.044;4.582;2023-03-11T11:56:43;77106.44;;;-144.37;54.05
36258;BME280;22294;52.044;4.582;2023-03-11T11:59:15;77104.38;;;-144.37;52.77
36258;BME280;22294;52.044;4.582;2023-03-11T12:01:45;77106.44;;;-144.37;51.99
36258;BME280;22294;52.044;4.582;2023-03-11T12:06:49;77090.06;;;-144.37;50.60
36258;BME280;22294;52.044;4.582;2023-03-11T12:14:42;77071.66;;;-144.37;49.37
36258;BME280;22294;52.044;4.582;2023-03-11T12:17:11;77073.69;;;-144.37;49.10
36258;BME280;22294;52.044;4.582;2023-03-11T12:25:18;77065.53;;;-144.37;49.41
36258;BME280;22294;52.044;4.582;2023-03-11T12:27:52;77057.34;;;-144.37;50.39
36258;BME280;22294;52.044;4.582;2023-03-11T12:30:33;77040.97;;;-144.37;50.76
36258;BME280;22294;52.044;4.582;2023-03-11T12:33:05;77032.78;;;-144.37;50.59
36258;BME280;22294;52.044;4.582;2023-03-11T12:35:35;77028.69;;;-144.37;50.80
36258;BME280;22294;52.044;4.582;2023-03-11T12:38:22;77040.97;;;-144.37;49.26
36258;BME280;22294;52.044;4.582;2023-03-11T12:40:57;77032.78;;;-144.37;49.73
36258;BME280;22294;52.044;4.582;2023-03-11T12:46:14;77030.75;;;-144.37;49.49
36258;BME280;22294;52.044;4.582;2023-03-11T12:48:53;77020.50;;;-144.37;49.95
36258;BME280;22294;52.044;4.582;2023-03-11T12:56:59;76995.97;;;-144.37;47.49
36258;BME280;22294;52.044;4.582;2023-03-11T13:08:22;76993.94;;;-144.37;47.96
36258;BME280;22294;52.044;4.582;2023-03-11T13:10:49;76983.69;;;-144.37;48.40
36258;BME280;22294;52.044;4.582;2023-03-11T13:15:50;76961.19;;;-144.37;47.73
36258;BME280;22294;52.044;4.582;2023-03-11T13:18:29;76975.50;;;-144.37;45.31
36258;BME280;22294;52.044;4.582;2023-03-11T13:21:00;76989.84;;;-144.37;47.52
36258;BME280;22294;52.044;4.582;2023-03-11T13:23:31;77000.06;;;-144.37;47.66
36258;BME280;22294;52.044;4.582;2023-03-11T13:31:52;76975.50;;;-144.37;46.46
36258;BME280;22294;52.044;4.582;2023-03-11T13:37:28;76950.97;;;-144.37;46.05
36258;BME280;22294;52.044;4.582;2023-03-11T13:40:10;76965.28;;;-144.37;45.41
36258;BME280;22294;52.044;4.582;2023-03-11T13:42:49;76965.28;;;-144.37;45.85
36258;BME280;22294;52.044;4.582;2023-03-11T13:45:26;76959.16;;;-144.37;46.90
36258;BME280;22294;52.044;4.582;2023-03-11T13:47:57;76985.75;;;-144.37;45.25
36258;BME280;22294;52.044;4.582;2023-03-11T13:50:38;76995.97;;;-144.37;44.58